Bullhead City, AZ

6:14 PM MST on August 26, 2016 (GMT -0700)
Laughlin-Bullhead International | | Change Station

Elev 696 ft 35.16 °N, 114.56 °W | Updated 19 minutes ago

Clear
Clear
99 °F
Feels Like 99 °F
N
18
Wind Variable Wind from SSE
Gusts 24 mph

Today
High -- | Low -- °F
--% Chance of Precip.
Yesterday
High -- | Low -- °F
Precip. -- in
Pressure 29.76 in
Visibility 10.0 miles
Clouds Clear
Dew Point 46 °F
Humidity 17%
Rainfall 0.00 in
Snow Depth Not available.
6:06 AM 7:12 PM
Waning Crescent, 29% visible
METAR KIFP 270055Z AUTO 16016G21KT 10SM CLR 37/08 A2976 RMK AO2 LTG DSNT NW
Pressure 29.76 in
Visibility 10.0 miles
Clouds Clear
Dew Point 46 °F
Humidity 17%
Rainfall 0.00 in
Snow Depth Not available.
6:06 AM 7:12 PM
Waning Crescent, 29% visible
METAR KIFP 270055Z AUTO 16016G21KT 10SM CLR 37/08 A2976 RMK AO2 LTG DSNT NW

10-Day Weather Forecast

Almanac

Astronomy

Aug. 26, 2016 Rise Set
Actual Time
Civil Twilight
Nautical Twilight
Astronomical Twilight
Moon
Length of Visible Light
Length of Day
Tomorrow will be .
, % of the Moon is Illuminated

Today's Extremes

State Highs State Lows

Community

WunderPhotos

Upload Photos

1,935,261 photos uploaded!

WunderBlog® & News

Nearby

Air Quality

  Air Quality AQ Index Pollutant
Not available.

Snow Depth

Station Depth Elevation

Earthquake Activity

City Distance Mag. Time & Date
Minimum magnitude displayed is 2.5.

Coastal Water Temperatures

Place Temperature

Stations

Nearby Weather Stations

Station Location Temp. Windchill Dew Point Humidity Wind Precip. Elev Updated Type
                   

Watches & Warnings

There are currently no watches in effect.